Terminal Aerodrome Forecast
Issued by NWS

Home | Current Version | Previous Version | Text Only | Print | Product List | Glossary Off
Versions: 1 2 3 4 5 6 7 8 9 10 11 12 13 14

000
FTUS43 KICT 241123
TAFHUT
TAF
KHUT 241123Z 2412/2512 28014KT P6SM SCT150
     FM241600 30019G27KT P6SM FEW150
     FM242300 32007KT P6SM SCT150=

USA.gov is the U.S. government's official web portal to all federal, state and local government web resources and services.